sensor_id;sensor_type;location;lat;lon;timestamp;P1;durP1;ratioP1;P2;durP2;ratioP2
7181;SDS011;3632;42.724;23.298;2022-11-12T00:00:55;29.50;;;22.83;;
7181;SDS011;3632;42.724;23.298;2022-11-12T00:03:25;30.33;;;22.60;;
7181;SDS011;3632;42.724;23.298;2022-11-12T00:05:53;29.17;;;22.83;;
7181;SDS011;3632;42.724;23.298;2022-11-12T00:08:21;31.50;;;23.07;;
7181;SDS011;3632;42.724;23.298;2022-11-12T00:10:50;27.53;;;22.00;;
7181;SDS011;3632;42.724;23.298;2022-11-12T00:13:18;29.20;;;22.17;;
7181;SDS011;3632;42.724;23.298;2022-11-12T00:15:46;29.03;;;22.20;;
7181;SDS011;3632;42.724;23.298;2022-11-12T00:18:14;29.77;;;22.40;;
7181;SDS011;3632;42.724;23.298;2022-11-12T00:20:43;31.80;;;22.93;;
7181;SDS011;3632;42.724;23.298;2022-11-12T00:23:11;29.60;;;22.50;;
7181;SDS011;3632;42.724;23.298;2022-11-12T00:25:39;32.10;;;23.83;;
7181;SDS011;3632;42.724;23.298;2022-11-12T00:28:07;30.97;;;23.73;;
7181;SDS011;3632;42.724;23.298;2022-11-12T00:30:36;35.87;;;25.93;;
7181;SDS011;3632;42.724;23.298;2022-11-12T00:33:05;28.73;;;22.60;;
7181;SDS011;3632;42.724;23.298;2022-11-12T00:35:33;30.83;;;22.60;;
7181;SDS011;3632;42.724;23.298;2022-11-12T00:38:02;29.00;;;22.67;;
7181;SDS011;3632;42.724;23.298;2022-11-12T00:40:30;31.00;;;22.83;;
7181;SDS011;3632;42.724;23.298;2022-11-12T00:42:58;27.47;;;21.83;;
7181;SDS011;3632;42.724;23.298;2022-11-12T00:45:27;28.43;;;21.17;;
7181;SDS011;3632;42.724;23.298;2022-11-12T00:47:55;27.63;;;21.53;;
7181;SDS011;3632;42.724;23.298;2022-11-12T00:50:23;31.07;;;23.00;;
7181;SDS011;3632;42.724;23.298;2022-11-12T00:52:52;31.53;;;23.20;;
7181;SDS011;3632;42.724;23.298;2022-11-12T00:55:23;29.17;;;22.10;;
7181;SDS011;3632;42.724;23.298;2022-11-12T00:57:51;34.53;;;25.43;;
7181;SDS011;3632;42.724;23.298;2022-11-12T01:00:20;33.17;;;24.90;;
7181;SDS011;3632;42.724;23.298;2022-11-12T01:02:49;30.57;;;23.97;;
7181;SDS011;3632;42.724;23.298;2022-11-12T01:05:18;31.90;;;23.37;;
7181;SDS011;3632;42.724;23.298;2022-11-12T01:07:46;30.70;;;23.37;;
7181;SDS011;3632;42.724;23.298;2022-11-12T01:10:15;31.27;;;22.23;;
7181;SDS011;3632;42.724;23.298;2022-11-12T01:12:45;28.73;;;22.00;;
7181;SDS011;3632;42.724;23.298;2022-11-12T01:15:13;29.83;;;22.50;;
7181;SDS011;3632;42.724;23.298;2022-11-12T01:17:42;28.83;;;21.50;;
7181;SDS011;3632;42.724;23.298;2022-11-12T01:20:10;29.10;;;22.27;;
7181;SDS011;3632;42.724;23.298;2022-11-12T01:22:39;30.87;;;23.03;;
7181;SDS011;3632;42.724;23.298;2022-11-12T01:25:08;34.20;;;25.13;;
7181;SDS011;3632;42.724;23.298;2022-11-12T01:27:37;39.40;;;27.33;;
7181;SDS011;3632;42.724;23.298;2022-11-12T01:30:10;37.97;;;27.60;;
7181;SDS011;3632;42.724;23.298;2022-11-12T01:32:39;41.83;;;29.10;;
7181;SDS011;3632;42.724;23.298;2022-11-12T01:35:08;42.93;;;30.43;;
7181;SDS011;3632;42.724;23.298;2022-11-12T01:37:37;39.30;;;27.10;;
7181;SDS011;3632;42.724;23.298;2022-11-12T01:40:07;32.50;;;24.10;;
7181;SDS011;3632;42.724;23.298;2022-11-12T01:42:37;32.47;;;23.30;;
7181;SDS011;3632;42.724;23.298;2022-11-12T01:45:17;28.00;;;21.47;;
7181;SDS011;3632;42.724;23.298;2022-11-12T01:47:51;26.47;;;20.00;;
7181;SDS011;3632;42.724;23.298;2022-11-12T01:50:28;28.77;;;21.43;;
7181;SDS011;3632;42.724;23.298;2022-11-12T01:53:07;29.63;;;22.60;;
7181;SDS011;3632;42.724;23.298;2022-11-12T01:55:42;29.47;;;22.40;;
7181;SDS011;3632;42.724;23.298;2022-11-12T01:58:19;28.97;;;22.37;;
7181;SDS011;3632;42.724;23.298;2022-11-12T02:01:01;29.33;;;22.20;;
7181;SDS011;3632;42.724;23.298;2022-11-12T02:03:36;28.97;;;21.83;;
7181;SDS011;3632;42.724;23.298;2022-11-12T02:06:07;26.53;;;21.47;;
7181;SDS011;3632;42.724;23.298;2022-11-12T02:08:39;28.83;;;21.57;;
7181;SDS011;3632;42.724;23.298;2022-11-12T02:11:10;29.40;;;21.93;;
7181;SDS011;3632;42.724;23.298;2022-11-12T02:13:40;28.27;;;21.30;;
7181;SDS011;3632;42.724;23.298;2022-11-12T02:16:28;26.83;;;21.27;;
7181;SDS011;3632;42.724;23.298;2022-11-12T02:19:00;28.43;;;21.47;;
7181;SDS011;3632;42.724;23.298;2022-11-12T02:21:31;27.77;;;21.90;;
7181;SDS011;3632;42.724;23.298;2022-11-12T02:23:59;30.13;;;22.93;;
7181;SDS011;3632;42.724;23.298;2022-11-12T02:26:31;26.77;;;20.77;;
7181;SDS011;3632;42.724;23.298;2022-11-12T02:29:02;27.23;;;21.77;;
7181;SDS011;3632;42.724;23.298;2022-11-12T02:31:32;29.10;;;22.87;;
7181;SDS011;3632;42.724;23.298;2022-11-12T02:34:02;26.20;;;20.53;;
7181;SDS011;3632;42.724;23.298;2022-11-12T02:36:33;29.40;;;22.37;;
7181;SDS011;3632;42.724;23.298;2022-11-12T02:39:04;29.70;;;22.40;;
7181;SDS011;3632;42.724;23.298;2022-11-12T02:41:37;29.30;;;22.13;;
7181;SDS011;3632;42.724;23.298;2022-11-12T02:44:10;25.77;;;20.60;;
7181;SDS011;3632;42.724;23.298;2022-11-12T02:46:46;27.30;;;20.37;;
7181;SDS011;3632;42.724;23.298;2022-11-12T02:49:18;26.47;;;19.83;;
7181;SDS011;3632;42.724;23.298;2022-11-12T02:51:53;24.10;;;19.33;;
7181;SDS011;3632;42.724;23.298;2022-11-12T02:54:25;23.80;;;17.47;;
7181;SDS011;3632;42.724;23.298;2022-11-12T02:56:58;22.27;;;17.27;;
7181;SDS011;3632;42.724;23.298;2022-11-12T02:59:32;21.83;;;16.53;;
7181;SDS011;3632;42.724;23.298;2022-11-12T03:02:04;22.53;;;16.20;;
7181;SDS011;3632;42.724;23.298;2022-11-12T03:04:36;19.03;;;15.03;;
7181;SDS011;3632;42.724;23.298;2022-11-12T03:07:11;20.20;;;14.73;;
7181;SDS011;3632;42.724;23.298;2022-11-12T03:09:48;17.77;;;14.20;;
7181;SDS011;3632;42.724;23.298;2022-11-12T03:12:21;15.77;;;11.83;;
7181;SDS011;3632;42.724;23.298;2022-11-12T03:14:52;16.40;;;12.80;;
7181;SDS011;3632;42.724;23.298;2022-11-12T03:17:19;14.37;;;11.27;;
7181;SDS011;3632;42.724;23.298;2022-11-12T03:19:47;24.53;;;19.37;;
7181;SDS011;3632;42.724;23.298;2022-11-12T03:22:17;12.23;;;10.53;;
7181;SDS011;3632;42.724;23.298;2022-11-12T03:24:47;15.10;;;10.67;;
7181;SDS011;3632;42.724;23.298;2022-11-12T03:27:20;11.87;;;9.63;;
7181;SDS011;3632;42.724;23.298;2022-11-12T03:29:53;11.63;;;9.20;;
7181;SDS011;3632;42.724;23.298;2022-11-12T03:32:26;9.67;;;8.33;;
7181;SDS011;3632;42.724;23.298;2022-11-12T03:34:58;10.17;;;8.50;;
7181;SDS011;3632;42.724;23.298;2022-11-12T03:37:33;9.03;;;8.00;;
7181;SDS011;3632;42.724;23.298;2022-11-12T03:40:09;9.63;;;8.17;;
7181;SDS011;3632;42.724;23.298;2022-11-12T03:42:45;11.67;;;8.77;;
7181;SDS011;3632;42.724;23.298;2022-11-12T03:45:17;8.80;;;7.60;;
7181;SDS011;3632;42.724;23.298;2022-11-12T03:47:51;7.43;;;6.20;;
7181;SDS011;3632;42.724;23.298;2022-11-12T03:50:20;7.47;;;6.27;;
7181;SDS011;3632;42.724;23.298;2022-11-12T03:52:53;6.77;;;6.07;;
7181;SDS011;3632;42.724;23.298;2022-11-12T03:55:28;7.30;;;6.07;;
7181;SDS011;3632;42.724;23.298;2022-11-12T03:58:01;10.63;;;6.23;;
7181;SDS011;3632;42.724;23.298;2022-11-12T04:00:38;6.90;;;5.90;;
7181;SDS011;3632;42.724;23.298;2022-11-12T04:03:11;9.23;;;5.83;;
7181;SDS011;3632;42.724;23.298;2022-11-12T04:05:44;6.97;;;5.70;;
7181;SDS011;3632;42.724;23.298;2022-11-12T04:08:49;6.20;;;5.60;;
7181;SDS011;3632;42.724;23.298;2022-11-12T04:11:22;6.33;;;5.73;;
7181;SDS011;3632;42.724;23.298;2022-11-12T04:13:58;6.37;;;5.77;;
7181;SDS011;3632;42.724;23.298;2022-11-12T04:16:29;5.70;;;5.20;;
7181;SDS011;3632;42.724;23.298;2022-11-12T04:19:17;7.17;;;5.87;;
7181;SDS011;3632;42.724;23.298;2022-11-12T04:22:06;5.80;;;5.20;;
7181;SDS011;3632;42.724;23.298;2022-11-12T04:24:42;7.33;;;6.00;;
7181;SDS011;3632;42.724;23.298;2022-11-12T04:27:30;6.73;;;6.03;;
7181;SDS011;3632;42.724;23.298;2022-11-12T04:30:05;6.37;;;5.43;;
7181;SDS011;3632;42.724;23.298;2022-11-12T04:32:49;6.67;;;5.90;;
7181;SDS011;3632;42.724;23.298;2022-11-12T04:35:24;7.13;;;5.50;;
7181;SDS011;3632;42.724;23.298;2022-11-12T04:37:57;6.20;;;5.60;;
7181;SDS011;3632;42.724;23.298;2022-11-12T04:40:32;7.93;;;6.00;;
7181;SDS011;3632;42.724;23.298;2022-11-12T04:43:23;9.20;;;6.23;;
7181;SDS011;3632;42.724;23.298;2022-11-12T04:46:11;7.73;;;5.97;;
7181;SDS011;3632;42.724;23.298;2022-11-12T04:48:44;8.03;;;7.13;;
7181;SDS011;3632;42.724;23.298;2022-11-12T04:51:17;17.53;;;14.93;;
7181;SDS011;3632;42.724;23.298;2022-11-12T04:54:05;13.47;;;11.63;;
7181;SDS011;3632;42.724;23.298;2022-11-12T04:56:43;10.73;;;7.73;;
7181;SDS011;3632;42.724;23.298;2022-11-12T04:59:15;9.40;;;6.70;;
7181;SDS011;3632;42.724;23.298;2022-11-12T05:01:48;7.60;;;6.50;;
7181;SDS011;3632;42.724;23.298;2022-11-12T05:04:25;36.60;;;32.63;;
7181;SDS011;3632;42.724;23.298;2022-11-12T05:06:59;12.10;;;10.30;;
7181;SDS011;3632;42.724;23.298;2022-11-12T05:09:33;9.43;;;6.90;;
7181;SDS011;3632;42.724;23.298;2022-11-12T05:12:08;8.63;;;7.00;;
7181;SDS011;3632;42.724;23.298;2022-11-12T05:14:40;8.03;;;7.00;;
7181;SDS011;3632;42.724;23.298;2022-11-12T05:17:13;8.47;;;6.97;;
7181;SDS011;3632;42.724;23.298;2022-11-12T05:19:45;10.50;;;7.43;;
7181;SDS011;3632;42.724;23.298;2022-11-12T05:22:22;9.33;;;7.80;;
7181;SDS011;3632;42.724;23.298;2022-11-12T05:24:55;10.57;;;7.53;;
7181;SDS011;3632;42.724;23.298;2022-11-12T05:27:33;16.83;;;11.43;;
7181;SDS011;3632;42.724;23.298;2022-11-12T05:30:06;10.47;;;8.10;;
7181;SDS011;3632;42.724;23.298;2022-11-12T05:32:38;8.50;;;7.27;;
7181;SDS011;3632;42.724;23.298;2022-11-12T05:35:08;8.80;;;7.83;;
7181;SDS011;3632;42.724;23.298;2022-11-12T05:37:40;10.60;;;7.17;;
7181;SDS011;3632;42.724;23.298;2022-11-12T05:40:14;11.33;;;7.37;;
7181;SDS011;3632;42.724;23.298;2022-11-12T05:42:47;9.10;;;7.30;;
7181;SDS011;3632;42.724;23.298;2022-11-12T05:45:17;8.83;;;7.93;;
7181;SDS011;3632;42.724;23.298;2022-11-12T05:47:49;9.27;;;7.40;;
7181;SDS011;3632;42.724;23.298;2022-11-12T05:50:18;8.83;;;7.97;;
7181;SDS011;3632;42.724;23.298;2022-11-12T05:52:48;14.13;;;9.37;;
7181;SDS011;3632;42.724;23.298;2022-11-12T05:55:17;10.63;;;8.37;;
7181;SDS011;3632;42.724;23.298;2022-11-12T05:57:50;12.57;;;9.73;;
7181;SDS011;3632;42.724;23.298;2022-11-12T06:00:22;11.00;;;9.03;;
7181;SDS011;3632;42.724;23.298;2022-11-12T06:02:56;11.10;;;8.30;;
7181;SDS011;3632;42.724;23.298;2022-11-12T06:05:28;12.20;;;8.17;;
7181;SDS011;3632;42.724;23.298;2022-11-12T06:08:00;11.90;;;8.70;;
7181;SDS011;3632;42.724;23.298;2022-11-12T06:10:32;11.70;;;9.33;;
7181;SDS011;3632;42.724;23.298;2022-11-12T06:13:15;14.07;;;10.10;;
7181;SDS011;3632;42.724;23.298;2022-11-12T06:15:47;11.77;;;9.67;;
7181;SDS011;3632;42.724;23.298;2022-11-12T06:18:20;10.77;;;8.83;;
7181;SDS011;3632;42.724;23.298;2022-11-12T06:20:55;9.30;;;8.30;;
7181;SDS011;3632;42.724;23.298;2022-11-12T06:23:54;10.97;;;8.77;;
7181;SDS011;3632;42.724;23.298;2022-11-12T06:26:28;13.13;;;9.23;;
7181;SDS011;3632;42.724;23.298;2022-11-12T06:29:06;11.07;;;8.83;;
7181;SDS011;3632;42.724;23.298;2022-11-12T06:31:38;9.93;;;8.23;;
7181;SDS011;3632;42.724;23.298;2022-11-12T06:34:10;9.73;;;8.73;;
7181;SDS011;3632;42.724;23.298;2022-11-12T06:36:43;12.93;;;8.87;;
7181;SDS011;3632;42.724;23.298;2022-11-12T06:39:17;9.97;;;8.17;;
7181;SDS011;3632;42.724;23.298;2022-11-12T06:41:50;10.57;;;8.77;;
7181;SDS011;3632;42.724;23.298;2022-11-12T06:44:25;9.63;;;8.50;;
7181;SDS011;3632;42.724;23.298;2022-11-12T06:47:00;11.37;;;8.57;;
7181;SDS011;3632;42.724;23.298;2022-11-12T06:49:32;11.43;;;8.03;;
7181;SDS011;3632;42.724;23.298;2022-11-12T06:52:05;9.83;;;6.97;;
7181;SDS011;3632;42.724;23.298;2022-11-12T06:54:38;7.90;;;6.77;;
7181;SDS011;3632;42.724;23.298;2022-11-12T06:57:10;8.23;;;6.80;;
7181;SDS011;3632;42.724;23.298;2022-11-12T07:05:08;6.63;;;5.93;;
7181;SDS011;3632;42.724;23.298;2022-11-12T07:07:34;10.37;;;5.87;;
7181;SDS011;3632;42.724;23.298;2022-11-12T07:10:01;6.13;;;5.53;;
7181;SDS011;3632;42.724;23.298;2022-11-12T07:12:28;8.43;;;6.00;;
7181;SDS011;3632;42.724;23.298;2022-11-12T07:14:55;6.97;;;6.00;;
7181;SDS011;3632;42.724;23.298;2022-11-12T07:17:22;6.23;;;5.33;;
7181;SDS011;3632;42.724;23.298;2022-11-12T07:19:48;6.60;;;6.00;;
7181;SDS011;3632;42.724;23.298;2022-11-12T07:22:16;7.17;;;6.47;;
7181;SDS011;3632;42.724;23.298;2022-11-12T07:24:43;8.83;;;6.50;;
7181;SDS011;3632;42.724;23.298;2022-11-12T07:27:10;6.57;;;5.57;;
7181;SDS011;3632;42.724;23.298;2022-11-12T07:29:36;6.40;;;5.73;;
7181;SDS011;3632;42.724;23.298;2022-11-12T07:32:03;8.00;;;6.47;;
7181;SDS011;3632;42.724;23.298;2022-11-12T07:34:30;7.07;;;5.80;;
7181;SDS011;3632;42.724;23.298;2022-11-12T07:36:57;7.37;;;5.97;;
7181;SDS011;3632;42.724;23.298;2022-11-12T07:39:25;7.80;;;6.10;;
7181;SDS011;3632;42.724;23.298;2022-11-12T07:41:52;6.20;;;5.53;;
7181;SDS011;3632;42.724;23.298;2022-11-12T07:44:18;7.53;;;6.10;;
7181;SDS011;3632;42.724;23.298;2022-11-12T07:46:45;7.27;;;6.40;;
7181;SDS011;3632;42.724;23.298;2022-11-12T07:49:12;7.07;;;6.27;;
7181;SDS011;3632;42.724;23.298;2022-11-12T07:51:38;7.60;;;6.47;;
7181;SDS011;3632;42.724;23.298;2022-11-12T07:54:05;8.77;;;7.40;;
7181;SDS011;3632;42.724;23.298;2022-11-12T07:56:33;9.00;;;8.10;;
7181;SDS011;3632;42.724;23.298;2022-11-12T07:59:00;8.70;;;7.70;;
7181;SDS011;3632;42.724;23.298;2022-11-12T08:01:28;8.53;;;6.93;;
7181;SDS011;3632;42.724;23.298;2022-11-12T08:03:57;7.47;;;6.40;;
7181;SDS011;3632;42.724;23.298;2022-11-12T08:06:25;7.30;;;6.50;;
7181;SDS011;3632;42.724;23.298;2022-11-12T08:08:52;7.87;;;6.60;;
7181;SDS011;3632;42.724;23.298;2022-11-12T08:11:19;7.30;;;5.90;;
7181;SDS011;3632;42.724;23.298;2022-11-12T08:13:48;7.20;;;5.67;;
7181;SDS011;3632;42.724;23.298;2022-11-12T08:16:15;6.70;;;5.97;;
7181;SDS011;3632;42.724;23.298;2022-11-12T08:18:45;8.87;;;6.40;;
7181;SDS011;3632;42.724;23.298;2022-11-12T08:21:16;6.83;;;6.07;;
7181;SDS011;3632;42.724;23.298;2022-11-12T08:23:44;7.80;;;5.63;;
7181;SDS011;3632;42.724;23.298;2022-11-12T08:26:11;9.03;;;5.23;;
7181;SDS011;3632;42.724;23.298;2022-11-12T08:28:40;5.90;;;5.07;;
7181;SDS011;3632;42.724;23.298;2022-11-12T08:31:09;12.60;;;6.47;;
7181;SDS011;3632;42.724;23.298;2022-11-12T08:33:36;6.87;;;5.50;;
7181;SDS011;3632;42.724;23.298;2022-11-12T08:36:04;6.33;;;5.53;;
7181;SDS011;3632;42.724;23.298;2022-11-12T08:38:32;6.53;;;5.30;;
7181;SDS011;3632;42.724;23.298;2022-11-12T08:40:59;6.67;;;5.80;;
7181;SDS011;3632;42.724;23.298;2022-11-12T08:43:27;6.63;;;4.87;;
7181;SDS011;3632;42.724;23.298;2022-11-12T08:45:56;6.87;;;5.10;;
7181;SDS011;3632;42.724;23.298;2022-11-12T08:48:25;5.70;;;4.77;;
7181;SDS011;3632;42.724;23.298;2022-11-12T08:50:52;5.93;;;5.00;;
7181;SDS011;3632;42.724;23.298;2022-11-12T08:53:19;8.07;;;5.57;;
7181;SDS011;3632;42.724;23.298;2022-11-12T08:55:47;8.60;;;5.73;;
7181;SDS011;3632;42.724;23.298;2022-11-12T08:58:17;6.07;;;5.37;;
7181;SDS011;3632;42.724;23.298;2022-11-12T09:00:44;8.77;;;5.10;;
7181;SDS011;3632;42.724;23.298;2022-11-12T09:03:12;8.30;;;5.50;;
7181;SDS011;3632;42.724;23.298;2022-11-12T09:05:41;6.30;;;4.70;;
7181;SDS011;3632;42.724;23.298;2022-11-12T09:08:09;5.20;;;4.37;;
7181;SDS011;3632;42.724;23.298;2022-11-12T09:10:37;8.13;;;5.00;;
7181;SDS011;3632;42.724;23.298;2022-11-12T09:13:04;7.30;;;5.07;;
7181;SDS011;3632;42.724;23.298;2022-11-12T09:15:31;6.53;;;5.07;;
7181;SDS011;3632;42.724;23.298;2022-11-12T09:17:59;5.73;;;4.20;;
7181;SDS011;3632;42.724;23.298;2022-11-12T09:20:27;5.40;;;4.33;;
7181;SDS011;3632;42.724;23.298;2022-11-12T09:22:58;6.30;;;4.20;;
7181;SDS011;3632;42.724;23.298;2022-11-12T09:25:26;6.90;;;4.57;;
7181;SDS011;3632;42.724;23.298;2022-11-12T09:27:53;6.10;;;4.60;;
7181;SDS011;3632;42.724;23.298;2022-11-12T09:30:20;7.23;;;4.90;;
7181;SDS011;3632;42.724;23.298;2022-11-12T09:32:47;5.90;;;4.33;;
7181;SDS011;3632;42.724;23.298;2022-11-12T09:35:14;6.17;;;4.47;;
7181;SDS011;3632;42.724;23.298;2022-11-12T09:37:41;5.73;;;4.83;;
7181;SDS011;3632;42.724;23.298;2022-11-12T09:40:10;6.63;;;4.67;;
7181;SDS011;3632;42.724;23.298;2022-11-12T09:42:42;5.20;;;4.60;;
7181;SDS011;3632;42.724;23.298;2022-11-12T09:45:12;6.93;;;4.97;;
7181;SDS011;3632;42.724;23.298;2022-11-12T09:47:47;6.77;;;4.47;;
7181;SDS011;3632;42.724;23.298;2022-11-12T09:50:19;8.03;;;5.20;;
7181;SDS011;3632;42.724;23.298;2022-11-12T09:52:51;6.53;;;4.70;;
7181;SDS011;3632;42.724;23.298;2022-11-12T09:55:27;5.77;;;4.70;;
7181;SDS011;3632;42.724;23.298;2022-11-12T09:57:56;6.83;;;4.73;;
7181;SDS011;3632;42.724;23.298;2022-11-12T10:00:23;5.60;;;4.33;;
7181;SDS011;3632;42.724;23.298;2022-11-12T10:02:51;8.70;;;4.83;;
7181;SDS011;3632;42.724;23.298;2022-11-12T10:05:25;5.47;;;4.67;;
7181;SDS011;3632;42.724;23.298;2022-11-12T10:08:05;5.93;;;4.63;;
7181;SDS011;3632;42.724;23.298;2022-11-12T10:10:51;5.20;;;4.70;;
7181;SDS011;3632;42.724;23.298;2022-11-12T10:13:29;6.27;;;4.90;;
7181;SDS011;3632;42.724;23.298;2022-11-12T10:16:12;6.63;;;5.27;;
7181;SDS011;3632;42.724;23.298;2022-11-12T10:19:11;6.03;;;4.37;;
7181;SDS011;3632;42.724;23.298;2022-11-12T10:21:48;6.90;;;5.50;;
7181;SDS011;3632;42.724;23.298;2022-11-12T10:24:20;6.67;;;4.90;;
7181;SDS011;3632;42.724;23.298;2022-11-12T10:26:50;8.27;;;5.57;;
7181;SDS011;3632;42.724;23.298;2022-11-12T10:29:27;9.47;;;7.03;;
7181;SDS011;3632;42.724;23.298;2022-11-12T10:31:59;6.37;;;5.50;;
7181;SDS011;3632;42.724;23.298;2022-11-12T10:34:27;9.93;;;5.37;;
7181;SDS011;3632;42.724;23.298;2022-11-12T10:36:55;6.07;;;4.87;;
7181;SDS011;3632;42.724;23.298;2022-11-12T10:39:30;5.73;;;4.70;;
7181;SDS011;3632;42.724;23.298;2022-11-12T10:42:04;5.47;;;4.33;;
7181;SDS011;3632;42.724;23.298;2022-11-12T10:44:34;9.47;;;6.37;;
7181;SDS011;3632;42.724;23.298;2022-11-12T10:47:17;5.93;;;4.63;;
7181;SDS011;3632;42.724;23.298;2022-11-12T10:50:05;5.13;;;4.63;;
7181;SDS011;3632;42.724;23.298;2022-11-12T10:52:51;10.10;;;5.67;;
7181;SDS011;3632;42.724;23.298;2022-11-12T10:55:20;5.53;;;4.90;;
7181;SDS011;3632;42.724;23.298;2022-11-12T10:58:02;5.30;;;4.33;;
7181;SDS011;3632;42.724;23.298;2022-11-12T11:00:50;5.93;;;5.33;;
7181;SDS011;3632;42.724;23.298;2022-11-12T11:03:20;5.80;;;4.60;;
7181;SDS011;3632;42.724;23.298;2022-11-12T11:05:49;5.20;;;4.70;;
7181;SDS011;3632;42.724;23.298;2022-11-12T11:08:30;7.63;;;4.37;;
7181;SDS011;3632;42.724;23.298;2022-11-12T11:11:09;8.43;;;5.67;;
7181;SDS011;3632;42.724;23.298;2022-11-12T11:13:44;7.60;;;6.33;;
7181;SDS011;3632;42.724;23.298;2022-11-12T11:16:12;7.90;;;6.63;;
7181;SDS011;3632;42.724;23.298;2022-11-12T11:18:44;6.03;;;4.50;;
7181;SDS011;3632;42.724;23.298;2022-11-12T11:21:18;6.10;;;5.30;;
7181;SDS011;3632;42.724;23.298;2022-11-12T11:24:03;5.03;;;4.10;;
7181;SDS011;3632;42.724;23.298;2022-11-12T11:26:51;7.97;;;4.67;;
7181;SDS011;3632;42.724;23.298;2022-11-12T11:32:34;4.33;;;3.90;;
7181;SDS011;3632;42.724;23.298;2022-11-12T11:35:16;6.63;;;5.73;;
7181;SDS011;3632;42.724;23.298;2022-11-12T11:37:53;4.33;;;3.93;;
7181;SDS011;3632;42.724;23.298;2022-11-12T11:40:35;5.77;;;4.83;;
7181;SDS011;3632;42.724;23.298;2022-11-12T11:43:18;5.10;;;4.50;;
7181;SDS011;3632;42.724;23.298;2022-11-12T11:45:58;8.00;;;6.20;;
7181;SDS011;3632;42.724;23.298;2022-11-12T11:48:35;7.53;;;5.60;;
7181;SDS011;3632;42.724;23.298;2022-11-12T11:51:16;7.57;;;5.70;;
7181;SDS011;3632;42.724;23.298;2022-11-12T11:54:03;8.73;;;6.27;;
7181;SDS011;3632;42.724;23.298;2022-11-12T11:56:41;8.23;;;3.73;;
7181;SDS011;3632;42.724;23.298;2022-11-12T11:59:15;4.13;;;3.73;;
7181;SDS011;3632;42.724;23.298;2022-11-12T12:01:56;4.53;;;3.97;;
7181;SDS011;3632;42.724;23.298;2022-11-12T12:04:44;5.73;;;4.20;;
7181;SDS011;3632;42.724;23.298;2022-11-12T12:07:20;4.40;;;4.00;;
7181;SDS011;3632;42.724;23.298;2022-11-12T12:09:56;5.93;;;4.87;;
7181;SDS011;3632;42.724;23.298;2022-11-12T12:12:33;5.00;;;4.50;;
7181;SDS011;3632;42.724;23.298;2022-11-12T12:15:16;5.27;;;4.30;;
7181;SDS011;3632;42.724;23.298;2022-11-12T12:17:56;6.17;;;4.80;;
7181;SDS011;3632;42.724;23.298;2022-11-12T12:20:31;6.10;;;4.70;;
7181;SDS011;3632;42.724;23.298;2022-11-12T12:23:09;5.50;;;4.60;;
7181;SDS011;3632;42.724;23.298;2022-11-12T12:25:39;5.20;;;4.37;;
7181;SDS011;3632;42.724;23.298;2022-11-12T12:28:11;6.03;;;4.90;;
7181;SDS011;3632;42.724;23.298;2022-11-12T12:30:43;5.33;;;4.83;;
7181;SDS011;3632;42.724;23.298;2022-11-12T12:33:18;5.00;;;4.43;;
7181;SDS011;3632;42.724;23.298;2022-11-12T12:35:50;8.53;;;7.23;;
7181;SDS011;3632;42.724;23.298;2022-11-12T12:38:23;9.30;;;5.70;;
7181;SDS011;3632;42.724;23.298;2022-11-12T12:40:58;7.90;;;6.53;;
7181;SDS011;3632;42.724;23.298;2022-11-12T12:43:31;6.70;;;5.67;;
7181;SDS011;3632;42.724;23.298;2022-11-12T12:46:02;5.23;;;4.57;;
7181;SDS011;3632;42.724;23.298;2022-11-12T12:48:33;5.23;;;4.60;;
7181;SDS011;3632;42.724;23.298;2022-11-12T12:51:03;6.50;;;5.63;;
7181;SDS011;3632;42.724;23.298;2022-11-12T12:53:30;5.30;;;4.30;;
7181;SDS011;3632;42.724;23.298;2022-11-12T12:55:58;7.73;;;5.13;;
7181;SDS011;3632;42.724;23.298;2022-11-12T12:58:28;6.20;;;4.30;;
7181;SDS011;3632;42.724;23.298;2022-11-12T13:00:58;5.27;;;4.10;;
7181;SDS011;3632;42.724;23.298;2022-11-12T13:03:49;5.20;;;4.10;;
7181;SDS011;3632;42.724;23.298;2022-11-12T13:06:25;6.47;;;3.93;;
7181;SDS011;3632;42.724;23.298;2022-11-12T13:08:56;4.87;;;4.03;;
7181;SDS011;3632;42.724;23.298;2022-11-12T13:17:40;5.27;;;4.50;;
7181;SDS011;3632;42.724;23.298;2022-11-12T13:20:17;5.07;;;3.93;;
7181;SDS011;3632;42.724;23.298;2022-11-12T13:22:59;4.17;;;3.77;;
7181;SDS011;3632;42.724;23.298;2022-11-12T13:25:26;6.90;;;4.20;;
7181;SDS011;3632;42.724;23.298;2022-11-12T13:30:56;5.43;;;4.73;;
7181;SDS011;3632;42.724;23.298;2022-11-12T13:33:26;6.53;;;4.73;;
7181;SDS011;3632;42.724;23.298;2022-11-12T13:39:09;7.50;;;5.20;;
7181;SDS011;3632;42.724;23.298;2022-11-12T13:41:39;6.17;;;4.80;;
7181;SDS011;3632;42.724;23.298;2022-11-12T13:44:23;5.40;;;4.87;;
7181;SDS011;3632;42.724;23.298;2022-11-12T13:46:53;5.63;;;4.57;;
7181;SDS011;3632;42.724;23.298;2022-11-12T13:49:20;5.30;;;4.80;;
7181;SDS011;3632;42.724;23.298;2022-11-12T13:51:48;5.93;;;5.20;;
7181;SDS011;3632;42.724;23.298;2022-11-12T13:54:27;6.23;;;5.63;;
7181;SDS011;3632;42.724;23.298;2022-11-12T13:57:15;6.03;;;5.53;;
7181;SDS011;3632;42.724;23.298;2022-11-12T14:02:50;6.10;;;5.50;;
7181;SDS011;3632;42.724;23.298;2022-11-12T14:05:20;6.43;;;5.57;;
7181;SDS011;3632;42.724;23.298;2022-11-12T14:10:44;6.67;;;5.53;;
7181;SDS011;3632;42.724;23.298;2022-11-12T14:13:23;6.87;;;5.80;;
7181;SDS011;3632;42.724;23.298;2022-11-12T14:19:05;7.13;;;6.43;;
7181;SDS011;3632;42.724;23.298;2022-11-12T14:21:56;9.43;;;6.50;;
7181;SDS011;3632;42.724;23.298;2022-11-12T14:24:25;6.67;;;5.97;;
7181;SDS011;3632;42.724;23.298;2022-11-12T14:26:52;6.20;;;5.57;;
7181;SDS011;3632;42.724;23.298;2022-11-12T14:29:18;6.20;;;5.60;;
7181;SDS011;3632;42.724;23.298;2022-11-12T14:31:45;6.60;;;6.00;;
7181;SDS011;3632;42.724;23.298;2022-11-12T14:34:19;7.53;;;6.70;;
7181;SDS011;3632;42.724;23.298;2022-11-12T14:36:46;8.07;;;6.57;;
7181;SDS011;3632;42.724;23.298;2022-11-12T14:39:14;9.63;;;7.40;;
7181;SDS011;3632;42.724;23.298;2022-11-12T14:41:43;9.90;;;7.50;;
7181;SDS011;3632;42.724;23.298;2022-11-12T14:44:14;7.80;;;6.97;;
7181;SDS011;3632;42.724;23.298;2022-11-12T14:46:45;9.30;;;7.60;;
7181;SDS011;3632;42.724;23.298;2022-11-12T14:49:14;11.63;;;8.10;;
7181;SDS011;3632;42.724;23.298;2022-11-12T14:51:45;9.73;;;7.50;;
7181;SDS011;3632;42.724;23.298;2022-11-12T14:54:14;8.47;;;7.13;;
7181;SDS011;3632;42.724;23.298;2022-11-12T14:56:52;7.23;;;6.27;;
7181;SDS011;3632;42.724;23.298;2022-11-12T14:59:19;8.47;;;6.10;;
7181;SDS011;3632;42.724;23.298;2022-11-12T15:02:01;9.53;;;6.70;;
7181;SDS011;3632;42.724;23.298;2022-11-12T15:04:35;10.17;;;6.70;;
7181;SDS011;3632;42.724;23.298;2022-11-12T15:07:03;8.43;;;7.53;;
7181;SDS011;3632;42.724;23.298;2022-11-12T15:09:32;8.20;;;7.07;;
7181;SDS011;3632;42.724;23.298;2022-11-12T15:12:02;8.77;;;7.60;;
7181;SDS011;3632;42.724;23.298;2022-11-12T15:14:30;16.63;;;7.93;;
7181;SDS011;3632;42.724;23.298;2022-11-12T15:16:58;8.53;;;7.17;;
7181;SDS011;3632;42.724;23.298;2022-11-12T15:19:25;10.97;;;9.23;;
7181;SDS011;3632;42.724;23.298;2022-11-12T15:21:54;8.43;;;7.37;;
7181;SDS011;3632;42.724;23.298;2022-11-12T15:24:23;7.73;;;6.30;;
7181;SDS011;3632;42.724;23.298;2022-11-12T15:26:53;8.80;;;6.13;;
7181;SDS011;3632;42.724;23.298;2022-11-12T15:29:24;7.10;;;6.40;;
7181;SDS011;3632;42.724;23.298;2022-11-12T15:32:01;8.73;;;6.90;;
7181;SDS011;3632;42.724;23.298;2022-11-12T15:34:30;7.40;;;6.70;;
7181;SDS011;3632;42.724;23.298;2022-11-12T15:37:00;7.47;;;6.73;;
7181;SDS011;3632;42.724;23.298;2022-11-12T15:39:30;8.13;;;7.00;;
7181;SDS011;3632;42.724;23.298;2022-11-12T15:42:00;8.20;;;6.90;;
7181;SDS011;3632;42.724;23.298;2022-11-12T15:44:32;11.17;;;7.30;;
7181;SDS011;3632;42.724;23.298;2022-11-12T15:47:01;8.30;;;7.47;;
7181;SDS011;3632;42.724;23.298;2022-11-12T15:49:29;8.87;;;7.63;;
7181;SDS011;3632;42.724;23.298;2022-11-12T15:51:55;10.33;;;6.77;;
7181;SDS011;3632;42.724;23.298;2022-11-12T15:54:23;9.30;;;7.50;;